sensor_id;sensor_type;location;lat;lon;timestamp;P1;durP1;ratioP1;P2;durP2;ratioP2
34505;SDS011;20748;42.632;23.198;2024-03-23T00:53:10;45.72;;;19.65;;
34505;SDS011;20748;42.632;23.198;2024-03-23T00:55:42;42.17;;;17.27;;
34505;SDS011;20748;42.632;23.198;2024-03-23T00:58:14;30.02;;;13.57;;
34505;SDS011;20748;42.632;23.198;2024-03-23T01:00:46;31.48;;;11.88;;
34505;SDS011;20748;42.632;23.198;2024-03-23T01:03:18;33.42;;;13.82;;
34505;SDS011;20748;42.632;23.198;2024-03-23T01:05:50;38.80;;;13.70;;
34505;SDS011;20748;42.632;23.198;2024-03-23T01:08:25;27.83;;;12.57;;
34505;SDS011;20748;42.632;23.198;2024-03-23T01:10:57;31.83;;;14.02;;
34505;SDS011;20748;42.632;23.198;2024-03-23T01:13:30;38.63;;;14.25;;
34505;SDS011;20748;42.632;23.198;2024-03-23T01:16:02;28.55;;;12.07;;
34505;SDS011;20748;42.632;23.198;2024-03-23T01:18:34;28.17;;;11.25;;
34505;SDS011;20748;42.632;23.198;2024-03-23T01:21:06;27.27;;;12.73;;
34505;SDS011;20748;42.632;23.198;2024-03-23T01:23:40;29.90;;;12.85;;
34505;SDS011;20748;42.632;23.198;2024-03-23T01:26:13;29.50;;;11.20;;
34505;SDS011;20748;42.632;23.198;2024-03-23T01:28:46;26.42;;;12.95;;
34505;SDS011;20748;42.632;23.198;2024-03-23T01:31:17;32.17;;;14.27;;
34505;SDS011;20748;42.632;23.198;2024-03-23T01:33:50;26.42;;;11.50;;
34505;SDS011;20748;42.632;23.198;2024-03-23T01:36:21;33.38;;;14.18;;
34505;SDS011;20748;42.632;23.198;2024-03-23T01:38:55;44.88;;;16.80;;
34505;SDS011;20748;42.632;23.198;2024-03-23T01:41:27;31.65;;;11.60;;
34505;SDS011;20748;42.632;23.198;2024-03-23T01:43:59;23.20;;;11.43;;
34505;SDS011;20748;42.632;23.198;2024-03-23T01:46:37;26.50;;;12.60;;
34505;SDS011;20748;42.632;23.198;2024-03-23T01:49:10;32.60;;;12.00;;
34505;SDS011;20748;42.632;23.198;2024-03-23T01:51:42;26.67;;;11.30;;
34505;SDS011;20748;42.632;23.198;2024-03-23T01:54:18;30.60;;;11.63;;
34505;SDS011;20748;42.632;23.198;2024-03-23T01:56:50;29.33;;;9.77;;
34505;SDS011;20748;42.632;23.198;2024-03-23T01:59:23;22.65;;;10.00;;
34505;SDS011;20748;42.632;23.198;2024-03-23T02:01:54;23.92;;;9.32;;
34505;SDS011;20748;42.632;23.198;2024-03-23T02:04:28;23.05;;;8.40;;
34505;SDS011;20748;42.632;23.198;2024-03-23T02:07:00;25.60;;;9.77;;
34505;SDS011;20748;42.632;23.198;2024-03-23T02:09:34;22.92;;;9.88;;
34505;SDS011;20748;42.632;23.198;2024-03-23T02:12:06;31.35;;;12.45;;
34505;SDS011;20748;42.632;23.198;2024-03-23T02:14:39;40.67;;;16.00;;
34505;SDS011;20748;42.632;23.198;2024-03-23T02:17:11;44.95;;;16.90;;
34505;SDS011;20748;42.632;23.198;2024-03-23T02:19:43;43.85;;;15.20;;
34505;SDS011;20748;42.632;23.198;2024-03-23T02:22:15;20.70;;;7.97;;
34505;SDS011;20748;42.632;23.198;2024-03-23T02:24:49;13.07;;;5.35;;
34505;SDS011;20748;42.632;23.198;2024-03-23T02:27:21;20.88;;;6.45;;
34505;SDS011;20748;42.632;23.198;2024-03-23T02:29:53;16.02;;;5.47;;
34505;SDS011;20748;42.632;23.198;2024-03-23T02:32:25;14.80;;;7.13;;
34505;SDS011;20748;42.632;23.198;2024-03-23T02:34:57;23.73;;;8.98;;
34505;SDS011;20748;42.632;23.198;2024-03-23T02:37:29;21.50;;;8.55;;
34505;SDS011;20748;42.632;23.198;2024-03-23T02:40:04;24.42;;;9.52;;
34505;SDS011;20748;42.632;23.198;2024-03-23T02:42:36;21.00;;;8.40;;
34505;SDS011;20748;42.632;23.198;2024-03-23T02:45:09;29.55;;;9.52;;
34505;SDS011;20748;42.632;23.198;2024-03-23T02:47:40;20.55;;;7.38;;
34505;SDS011;20748;42.632;23.198;2024-03-23T02:50:13;10.93;;;5.10;;
34505;SDS011;20748;42.632;23.198;2024-03-23T02:52:46;12.18;;;4.70;;
34505;SDS011;20748;42.632;23.198;2024-03-23T02:55:19;17.58;;;5.70;;
34505;SDS011;20748;42.632;23.198;2024-03-23T02:57:52;14.45;;;4.72;;
34505;SDS011;20748;42.632;23.198;2024-03-23T03:00:24;10.98;;;4.43;;
34505;SDS011;20748;42.632;23.198;2024-03-23T03:02:56;7.95;;;4.30;;
34505;SDS011;20748;42.632;23.198;2024-03-23T03:05:28;17.60;;;5.68;;
34505;SDS011;20748;42.632;23.198;2024-03-23T03:08:00;14.05;;;6.50;;
34505;SDS011;20748;42.632;23.198;2024-03-23T03:10:33;17.02;;;7.15;;
34505;SDS011;20748;42.632;23.198;2024-03-23T03:13:07;13.20;;;5.78;;
34505;SDS011;20748;42.632;23.198;2024-03-23T03:15:39;24.60;;;9.52;;
34505;SDS011;20748;42.632;23.198;2024-03-23T03:18:12;27.52;;;10.23;;
34505;SDS011;20748;42.632;23.198;2024-03-23T03:20:43;27.23;;;8.90;;
34505;SDS011;20748;42.632;23.198;2024-03-23T03:23:16;17.08;;;7.38;;
34505;SDS011;20748;42.632;23.198;2024-03-23T03:25:50;18.15;;;7.13;;
34505;SDS011;20748;42.632;23.198;2024-03-23T03:28:23;14.10;;;6.82;;
34505;SDS011;20748;42.632;23.198;2024-03-23T03:33:59;13.23;;;6.28;;
34505;SDS011;20748;42.632;23.198;2024-03-23T03:36:31;13.02;;;6.32;;
34505;SDS011;20748;42.632;23.198;2024-03-23T03:39:04;14.80;;;7.35;;
34505;SDS011;20748;42.632;23.198;2024-03-23T03:41:37;16.48;;;8.07;;
34505;SDS011;20748;42.632;23.198;2024-03-23T03:44:09;12.05;;;6.85;;
34505;SDS011;20748;42.632;23.198;2024-03-23T03:46:42;14.10;;;6.85;;
34505;SDS011;20748;42.632;23.198;2024-03-23T03:49:14;20.23;;;7.30;;
34505;SDS011;20748;42.632;23.198;2024-03-23T03:51:46;12.55;;;7.57;;
34505;SDS011;20748;42.632;23.198;2024-03-23T03:54:19;16.85;;;8.02;;
34505;SDS011;20748;42.632;23.198;2024-03-23T03:56:53;13.20;;;7.18;;
34505;SDS011;20748;42.632;23.198;2024-03-23T03:59:26;13.20;;;6.45;;
34505;SDS011;20748;42.632;23.198;2024-03-23T04:01:58;15.57;;;6.18;;
34505;SDS011;20748;42.632;23.198;2024-03-23T04:04:30;9.00;;;5.00;;
34505;SDS011;20748;42.632;23.198;2024-03-23T04:07:02;9.32;;;4.28;;
34505;SDS011;20748;42.632;23.198;2024-03-23T04:09:36;9.38;;;3.47;;
34505;SDS011;20748;42.632;23.198;2024-03-23T04:12:09;5.07;;;3.22;;
34505;SDS011;20748;42.632;23.198;2024-03-23T04:14:41;6.97;;;3.40;;
34505;SDS011;20748;42.632;23.198;2024-03-23T04:17:13;8.55;;;3.30;;
34505;SDS011;20748;42.632;23.198;2024-03-23T04:19:46;6.75;;;3.42;;
34505;SDS011;20748;42.632;23.198;2024-03-23T04:22:20;6.65;;;3.10;;
34505;SDS011;20748;42.632;23.198;2024-03-23T04:25:00;13.85;;;4.72;;
34505;SDS011;20748;42.632;23.198;2024-03-23T04:27:38;9.32;;;4.45;;
34505;SDS011;20748;42.632;23.198;2024-03-23T04:30:12;12.80;;;5.10;;
34505;SDS011;20748;42.632;23.198;2024-03-23T04:32:44;12.00;;;5.78;;
34505;SDS011;20748;42.632;23.198;2024-03-23T04:35:16;12.95;;;6.20;;
34505;SDS011;20748;42.632;23.198;2024-03-23T04:37:48;11.00;;;5.72;;
34505;SDS011;20748;42.632;23.198;2024-03-23T04:40:20;15.90;;;7.90;;
34505;SDS011;20748;42.632;23.198;2024-03-23T04:42:55;12.35;;;5.55;;
34505;SDS011;20748;42.632;23.198;2024-03-23T04:45:27;14.88;;;5.78;;
34505;SDS011;20748;42.632;23.198;2024-03-23T04:48:00;13.15;;;4.80;;
34505;SDS011;20748;42.632;23.198;2024-03-23T04:50:33;8.20;;;4.00;;
34505;SDS011;20748;42.632;23.198;2024-03-23T04:53:05;7.07;;;3.40;;
34505;SDS011;20748;42.632;23.198;2024-03-23T04:55:38;8.80;;;4.00;;
34505;SDS011;20748;42.632;23.198;2024-03-23T04:58:12;10.18;;;4.85;;
34505;SDS011;20748;42.632;23.198;2024-03-23T05:00:44;10.05;;;4.10;;
34505;SDS011;20748;42.632;23.198;2024-03-23T05:03:16;15.27;;;5.30;;
34505;SDS011;20748;42.632;23.198;2024-03-23T05:05:48;8.75;;;4.03;;
34505;SDS011;20748;42.632;23.198;2024-03-23T05:08:21;11.63;;;4.15;;
34505;SDS011;20748;42.632;23.198;2024-03-23T05:10:53;9.68;;;4.65;;
34505;SDS011;20748;42.632;23.198;2024-03-23T05:13:27;7.20;;;3.80;;
34505;SDS011;20748;42.632;23.198;2024-03-23T05:15:58;9.05;;;4.68;;
34505;SDS011;20748;42.632;23.198;2024-03-23T05:18:31;14.50;;;5.63;;
34505;SDS011;20748;42.632;23.198;2024-03-23T05:21:03;12.13;;;4.60;;
34505;SDS011;20748;42.632;23.198;2024-03-23T05:23:36;8.88;;;4.43;;
34505;SDS011;20748;42.632;23.198;2024-03-23T05:26:09;12.52;;;4.82;;
34505;SDS011;20748;42.632;23.198;2024-03-23T05:28:43;11.23;;;5.97;;
34505;SDS011;20748;42.632;23.198;2024-03-23T05:31:22;14.82;;;6.20;;
34505;SDS011;20748;42.632;23.198;2024-03-23T05:33:55;16.88;;;5.68;;
34505;SDS011;20748;42.632;23.198;2024-03-23T05:36:27;19.88;;;7.38;;
34505;SDS011;20748;42.632;23.198;2024-03-23T05:38:59;21.27;;;5.97;;
34505;SDS011;20748;42.632;23.198;2024-03-23T05:41:31;11.70;;;5.97;;
34505;SDS011;20748;42.632;23.198;2024-03-23T05:44:08;8.65;;;4.60;;
34505;SDS011;20748;42.632;23.198;2024-03-23T05:46:41;10.00;;;5.30;;
34505;SDS011;20748;42.632;23.198;2024-03-23T05:49:19;15.20;;;5.40;;
34505;SDS011;20748;42.632;23.198;2024-03-23T05:51:52;12.73;;;4.43;;
34505;SDS011;20748;42.632;23.198;2024-03-23T05:54:26;6.18;;;3.63;;
34505;SDS011;20748;42.632;23.198;2024-03-23T05:56:58;12.00;;;5.72;;
34505;SDS011;20748;42.632;23.198;2024-03-23T05:59:32;6.68;;;3.30;;
34505;SDS011;20748;42.632;23.198;2024-03-23T06:02:04;6.70;;;2.70;;
34505;SDS011;20748;42.632;23.198;2024-03-23T06:04:36;5.90;;;3.78;;
34505;SDS011;20748;42.632;23.198;2024-03-23T06:07:08;9.82;;;4.18;;
34505;SDS011;20748;42.632;23.198;2024-03-23T06:09:44;9.35;;;4.43;;
34505;SDS011;20748;42.632;23.198;2024-03-23T06:12:16;19.27;;;4.75;;
34505;SDS011;20748;42.632;23.198;2024-03-23T06:14:50;7.45;;;3.85;;
34505;SDS011;20748;42.632;23.198;2024-03-23T06:17:22;5.90;;;3.33;;
34505;SDS011;20748;42.632;23.198;2024-03-23T06:19:54;6.72;;;3.75;;
34505;SDS011;20748;42.632;23.198;2024-03-23T06:22:26;6.32;;;3.15;;
34505;SDS011;20748;42.632;23.198;2024-03-23T06:24:58;9.30;;;3.95;;
34505;SDS011;20748;42.632;23.198;2024-03-23T06:27:30;7.43;;;3.55;;
34505;SDS011;20748;42.632;23.198;2024-03-23T06:30:05;8.60;;;3.95;;
34505;SDS011;20748;42.632;23.198;2024-03-23T06:32:38;11.27;;;4.97;;
34505;SDS011;20748;42.632;23.198;2024-03-23T06:35:11;13.70;;;8.23;;
34505;SDS011;20748;42.632;23.198;2024-03-23T06:37:42;8.85;;;4.70;;
34505;SDS011;20748;42.632;23.198;2024-03-23T06:40:15;10.98;;;5.32;;
34505;SDS011;20748;42.632;23.198;2024-03-23T06:42:46;8.73;;;3.95;;
34505;SDS011;20748;42.632;23.198;2024-03-23T06:45:20;11.77;;;4.30;;
34505;SDS011;20748;42.632;23.198;2024-03-23T06:47:54;6.70;;;4.43;;
34505;SDS011;20748;42.632;23.198;2024-03-23T06:50:28;21.00;;;7.68;;
34505;SDS011;20748;42.632;23.198;2024-03-23T06:53:00;16.75;;;6.60;;
34505;SDS011;20748;42.632;23.198;2024-03-23T06:55:33;7.57;;;3.88;;
34505;SDS011;20748;42.632;23.198;2024-03-23T06:58:05;10.50;;;5.28;;
34505;SDS011;20748;42.632;23.198;2024-03-23T07:00:39;8.00;;;4.38;;
34505;SDS011;20748;42.632;23.198;2024-03-23T07:03:11;12.45;;;5.55;;
34505;SDS011;20748;42.632;23.198;2024-03-23T07:05:44;10.40;;;5.50;;
34505;SDS011;20748;42.632;23.198;2024-03-23T07:08:17;9.02;;;4.30;;
34505;SDS011;20748;42.632;23.198;2024-03-23T07:10:53;11.20;;;5.15;;
34505;SDS011;20748;42.632;23.198;2024-03-23T07:13:25;7.53;;;3.72;;
34505;SDS011;20748;42.632;23.198;2024-03-23T07:15:59;12.25;;;5.10;;
34505;SDS011;20748;42.632;23.198;2024-03-23T07:18:31;8.95;;;4.30;;
34505;SDS011;20748;42.632;23.198;2024-03-23T07:21:05;8.45;;;4.05;;
34505;SDS011;20748;42.632;23.198;2024-03-23T07:23:38;10.65;;;4.47;;
34505;SDS011;20748;42.632;23.198;2024-03-23T07:26:15;9.80;;;4.57;;
34505;SDS011;20748;42.632;23.198;2024-03-23T07:28:47;8.57;;;4.13;;
34505;SDS011;20748;42.632;23.198;2024-03-23T07:31:22;6.70;;;4.25;;
34505;SDS011;20748;42.632;23.198;2024-03-23T07:37:24;7.30;;;3.47;;
34505;SDS011;20748;42.632;23.198;2024-03-23T07:39:57;8.50;;;4.10;;
34505;SDS011;20748;42.632;23.198;2024-03-23T07:42:30;17.67;;;4.68;;
34505;SDS011;20748;42.632;23.198;2024-03-23T07:45:02;8.13;;;3.38;;
34505;SDS011;20748;42.632;23.198;2024-03-23T07:47:37;9.95;;;4.55;;
34505;SDS011;20748;42.632;23.198;2024-03-23T07:50:09;6.82;;;3.55;;
34505;SDS011;20748;42.632;23.198;2024-03-23T07:52:42;9.57;;;4.10;;
34505;SDS011;20748;42.632;23.198;2024-03-23T07:55:14;6.13;;;3.75;;
34505;SDS011;20748;42.632;23.198;2024-03-23T07:57:47;5.65;;;3.03;;
34505;SDS011;20748;42.632;23.198;2024-03-23T08:00:18;8.23;;;3.83;;
34505;SDS011;20748;42.632;23.198;2024-03-23T08:02:52;8.55;;;4.13;;
34505;SDS011;20748;42.632;23.198;2024-03-23T08:05:25;6.32;;;3.70;;
34505;SDS011;20748;42.632;23.198;2024-03-23T08:07:58;7.78;;;3.17;;
34505;SDS011;20748;42.632;23.198;2024-03-23T08:10:30;8.57;;;2.65;;
34505;SDS011;20748;42.632;23.198;2024-03-23T08:13:03;6.38;;;3.17;;
34505;SDS011;20748;42.632;23.198;2024-03-23T08:15:35;5.55;;;3.45;;
34505;SDS011;20748;42.632;23.198;2024-03-23T08:18:10;7.47;;;3.50;;
34505;SDS011;20748;42.632;23.198;2024-03-23T08:20:41;6.85;;;3.25;;
34505;SDS011;20748;42.632;23.198;2024-03-23T08:23:14;5.35;;;3.28;;
34505;SDS011;20748;42.632;23.198;2024-03-23T08:25:46;6.53;;;3.33;;
34505;SDS011;20748;42.632;23.198;2024-03-23T08:28:18;7.57;;;3.67;;
34505;SDS011;20748;42.632;23.198;2024-03-23T08:30:50;7.50;;;2.95;;
34505;SDS011;20748;42.632;23.198;2024-03-23T08:33:24;4.50;;;2.80;;
34505;SDS011;20748;42.632;23.198;2024-03-23T08:35:56;6.47;;;2.97;;
34505;SDS011;20748;42.632;23.198;2024-03-23T08:38:29;4.90;;;2.30;;
34505;SDS011;20748;42.632;23.198;2024-03-23T08:41:02;4.93;;;2.47;;
34505;SDS011;20748;42.632;23.198;2024-03-23T08:43:36;4.78;;;3.03;;
34505;SDS011;20748;42.632;23.198;2024-03-23T08:46:10;10.60;;;5.90;;
34505;SDS011;20748;42.632;23.198;2024-03-23T08:48:46;9.50;;;4.13;;
34505;SDS011;20748;42.632;23.198;2024-03-23T08:51:20;5.50;;;3.03;;
34505;SDS011;20748;42.632;23.198;2024-03-23T08:53:52;22.58;;;12.73;;
34505;SDS011;20748;42.632;23.198;2024-03-23T08:56:24;12.35;;;7.25;;
34505;SDS011;20748;42.632;23.198;2024-03-23T08:58:56;9.93;;;6.88;;
34505;SDS011;20748;42.632;23.198;2024-03-23T09:01:28;6.03;;;3.70;;
34505;SDS011;20748;42.632;23.198;2024-03-23T09:04:02;5.95;;;3.20;;
34505;SDS011;20748;42.632;23.198;2024-03-23T09:06:34;5.10;;;2.40;;
34505;SDS011;20748;42.632;23.198;2024-03-23T09:09:06;5.70;;;2.92;;
34505;SDS011;20748;42.632;23.198;2024-03-23T09:11:38;6.20;;;2.67;;
34505;SDS011;20748;42.632;23.198;2024-03-23T09:14:11;10.02;;;7.70;;
34505;SDS011;20748;42.632;23.198;2024-03-23T09:16:42;5.82;;;3.67;;
34505;SDS011;20748;42.632;23.198;2024-03-23T09:19:17;4.88;;;2.55;;
34505;SDS011;20748;42.632;23.198;2024-03-23T09:21:49;6.22;;;2.75;;
34505;SDS011;20748;42.632;23.198;2024-03-23T09:24:22;7.97;;;3.20;;
34505;SDS011;20748;42.632;23.198;2024-03-23T09:26:53;4.72;;;2.25;;
34505;SDS011;20748;42.632;23.198;2024-03-23T09:29:26;7.07;;;3.17;;
34505;SDS011;20748;42.632;23.198;2024-03-23T09:31:57;6.05;;;2.22;;
34505;SDS011;20748;42.632;23.198;2024-03-23T09:34:31;4.80;;;2.58;;
34505;SDS011;20748;42.632;23.198;2024-03-23T09:37:03;5.03;;;2.20;;
34505;SDS011;20748;42.632;23.198;2024-03-23T09:39:36;5.68;;;2.75;;
34505;SDS011;20748;42.632;23.198;2024-03-23T09:42:07;4.20;;;2.53;;
34505;SDS011;20748;42.632;23.198;2024-03-23T09:44:40;5.25;;;2.28;;
34505;SDS011;20748;42.632;23.198;2024-03-23T09:47:12;5.25;;;3.08;;
34505;SDS011;20748;42.632;23.198;2024-03-23T09:49:46;4.03;;;2.40;;
34505;SDS011;20748;42.632;23.198;2024-03-23T09:52:18;5.25;;;2.67;;
34505;SDS011;20748;42.632;23.198;2024-03-23T09:54:51;2.85;;;1.80;;
34505;SDS011;20748;42.632;23.198;2024-03-23T09:57:22;6.18;;;3.10;;
34505;SDS011;20748;42.632;23.198;2024-03-23T09:59:55;5.97;;;2.38;;
34505;SDS011;20748;42.632;23.198;2024-03-23T10:02:29;3.28;;;1.80;;
34505;SDS011;20748;42.632;23.198;2024-03-23T10:05:04;4.95;;;2.70;;
34505;SDS011;20748;42.632;23.198;2024-03-23T10:07:36;4.75;;;2.72;;
34505;SDS011;20748;42.632;23.198;2024-03-23T10:10:10;8.13;;;3.95;;
34505;SDS011;20748;42.632;23.198;2024-03-23T10:12:43;6.60;;;3.22;;
34505;SDS011;20748;42.632;23.198;2024-03-23T10:15:18;5.55;;;2.90;;
34505;SDS011;20748;42.632;23.198;2024-03-23T10:17:50;6.88;;;3.20;;
34505;SDS011;20748;42.632;23.198;2024-03-23T10:20:25;4.35;;;2.35;;
34505;SDS011;20748;42.632;23.198;2024-03-23T10:22:58;4.70;;;2.25;;
34505;SDS011;20748;42.632;23.198;2024-03-23T10:25:32;8.52;;;2.33;;
34505;SDS011;20748;42.632;23.198;2024-03-23T10:28:04;5.07;;;2.50;;
34505;SDS011;20748;42.632;23.198;2024-03-23T10:30:37;4.53;;;2.33;;
34505;SDS011;20748;42.632;23.198;2024-03-23T10:33:09;7.57;;;2.53;;
34505;SDS011;20748;42.632;23.198;2024-03-23T10:35:43;7.40;;;2.38;;
34505;SDS011;20748;42.632;23.198;2024-03-23T10:38:15;7.93;;;3.50;;
34505;SDS011;20748;42.632;23.198;2024-03-23T10:40:47;9.52;;;4.00;;
34505;SDS011;20748;42.632;23.198;2024-03-23T10:43:19;6.93;;;2.90;;
34505;SDS011;20748;42.632;23.198;2024-03-23T10:45:52;5.55;;;2.80;;
34505;SDS011;20748;42.632;23.198;2024-03-23T10:48:24;3.22;;;1.75;;
34505;SDS011;20748;42.632;23.198;2024-03-23T10:50:58;5.00;;;2.55;;
34505;SDS011;20748;42.632;23.198;2024-03-23T10:53:30;9.60;;;2.95;;
34505;SDS011;20748;42.632;23.198;2024-03-23T10:56:06;8.55;;;4.43;;
34505;SDS011;20748;42.632;23.198;2024-03-23T10:58:39;5.25;;;3.10;;
34505;SDS011;20748;42.632;23.198;2024-03-23T11:01:13;8.88;;;2.88;;
34505;SDS011;20748;42.632;23.198;2024-03-23T11:03:45;4.40;;;2.30;;
34505;SDS011;20748;42.632;23.198;2024-03-23T11:09:39;2.80;;;2.08;;
34505;SDS011;20748;42.632;23.198;2024-03-23T11:12:25;5.63;;;3.45;;
34505;SDS011;20748;42.632;23.198;2024-03-23T11:14:58;3.97;;;2.35;;
34505;SDS011;20748;42.632;23.198;2024-03-23T11:17:33;4.22;;;2.03;;
34505;SDS011;20748;42.632;23.198;2024-03-23T11:20:05;2.47;;;1.52;;
34505;SDS011;20748;42.632;23.198;2024-03-23T11:22:43;5.22;;;2.15;;
34505;SDS011;20748;42.632;23.198;2024-03-23T11:25:20;4.50;;;2.20;;
34505;SDS011;20748;42.632;23.198;2024-03-23T11:27:54;5.93;;;2.38;;
34505;SDS011;20748;42.632;23.198;2024-03-23T11:30:27;2.95;;;1.88;;
34505;SDS011;20748;42.632;23.198;2024-03-23T11:33:00;4.35;;;2.22;;
34505;SDS011;20748;42.632;23.198;2024-03-23T11:35:34;6.32;;;2.05;;
34505;SDS011;20748;42.632;23.198;2024-03-23T11:38:09;5.47;;;2.00;;
34505;SDS011;20748;42.632;23.198;2024-03-23T11:40:43;3.22;;;1.70;;
34505;SDS011;20748;42.632;23.198;2024-03-23T11:43:18;4.65;;;1.83;;
34505;SDS011;20748;42.632;23.198;2024-03-23T11:45:51;4.78;;;1.63;;
34505;SDS011;20748;42.632;23.198;2024-03-23T11:48:25;4.57;;;1.98;;
34505;SDS011;20748;42.632;23.198;2024-03-23T11:50:58;2.17;;;1.30;;
34505;SDS011;20748;42.632;23.198;2024-03-23T11:53:31;3.28;;;1.55;;
34505;SDS011;20748;42.632;23.198;2024-03-23T11:56:05;4.38;;;1.67;;
34505;SDS011;20748;42.632;23.198;2024-03-23T11:58:37;2.95;;;1.20;;
34505;SDS011;20748;42.632;23.198;2024-03-23T12:01:10;4.30;;;1.50;;
34505;SDS011;20748;42.632;23.198;2024-03-23T12:03:43;3.42;;;2.03;;
34505;SDS011;20748;42.632;23.198;2024-03-23T12:06:19;3.30;;;1.55;;
34505;SDS011;20748;42.632;23.198;2024-03-23T12:08:52;3.53;;;1.40;;
34505;SDS011;20748;42.632;23.198;2024-03-23T12:11:25;2.72;;;1.48;;
34505;SDS011;20748;42.632;23.198;2024-03-23T12:13:59;2.95;;;1.80;;
34505;SDS011;20748;42.632;23.198;2024-03-23T12:16:31;3.13;;;1.35;;
34505;SDS011;20748;42.632;23.198;2024-03-23T12:19:04;2.63;;;1.27;;
34505;SDS011;20748;42.632;23.198;2024-03-23T12:21:36;3.10;;;1.60;;
34505;SDS011;20748;42.632;23.198;2024-03-23T12:24:09;2.83;;;1.50;;
34505;SDS011;20748;42.632;23.198;2024-03-23T12:26:42;2.97;;;1.35;;
34505;SDS011;20748;42.632;23.198;2024-03-23T12:29:15;4.15;;;1.33;;
34505;SDS011;20748;42.632;23.198;2024-03-23T12:31:47;2.33;;;1.40;;
34505;SDS011;20748;42.632;23.198;2024-03-23T12:34:19;3.67;;;1.85;;
34505;SDS011;20748;42.632;23.198;2024-03-23T12:36:51;3.45;;;2.05;;
34505;SDS011;20748;42.632;23.198;2024-03-23T12:39:23;2.25;;;1.10;;
34505;SDS011;20748;42.632;23.198;2024-03-23T12:41:56;2.83;;;1.35;;
34505;SDS011;20748;42.632;23.198;2024-03-23T12:44:29;2.75;;;1.42;;
34505;SDS011;20748;42.632;23.198;2024-03-23T12:47:01;2.63;;;1.30;;
34505;SDS011;20748;42.632;23.198;2024-03-23T12:49:33;3.75;;;1.13;;
34505;SDS011;20748;42.632;23.198;2024-03-23T12:52:05;2.40;;;1.08;;
34505;SDS011;20748;42.632;23.198;2024-03-23T12:54:39;2.70;;;1.17;;
34505;SDS011;20748;42.632;23.198;2024-03-23T12:57:12;1.90;;;1.05;;
34505;SDS011;20748;42.632;23.198;2024-03-23T12:59:44;3.60;;;1.30;;
34505;SDS011;20748;42.632;23.198;2024-03-23T13:02:22;4.30;;;1.33;;
34505;SDS011;20748;42.632;23.198;2024-03-23T13:04:55;2.55;;;1.17;;
34505;SDS011;20748;42.632;23.198;2024-03-23T13:07:27;1.98;;;0.98;;
34505;SDS011;20748;42.632;23.198;2024-03-23T13:09:59;2.00;;;1.60;;
34505;SDS011;20748;42.632;23.198;2024-03-23T13:12:33;2.40;;;1.20;;
34505;SDS011;20748;42.632;23.198;2024-03-23T13:15:06;2.65;;;1.17;;
34505;SDS011;20748;42.632;23.198;2024-03-23T13:17:38;2.55;;;0.90;;
34505;SDS011;20748;42.632;23.198;2024-03-23T13:20:10;4.85;;;0.90;;
34505;SDS011;20748;42.632;23.198;2024-03-23T13:22:45;2.75;;;1.23;;
34505;SDS011;20748;42.632;23.198;2024-03-23T13:25:18;2.13;;;1.00;;
34505;SDS011;20748;42.632;23.198;2024-03-23T13:27:51;3.10;;;1.40;;
34505;SDS011;20748;42.632;23.198;2024-03-23T13:30:24;2.97;;;1.63;;
34505;SDS011;20748;42.632;23.198;2024-03-23T13:32:56;2.78;;;1.13;;
34505;SDS011;20748;42.632;23.198;2024-03-23T13:35:28;2.13;;;1.38;;
34505;SDS011;20748;42.632;23.198;2024-03-23T13:38:01;4.22;;;1.50;;
34505;SDS011;20748;42.632;23.198;2024-03-23T13:40:32;5.13;;;1.30;;
34505;SDS011;20748;42.632;23.198;2024-03-23T13:43:06;3.40;;;1.23;;
34505;SDS011;20748;42.632;23.198;2024-03-23T13:45:38;5.03;;;1.63;;
34505;SDS011;20748;42.632;23.198;2024-03-23T13:48:10;2.03;;;1.30;;
34505;SDS011;20748;42.632;23.198;2024-03-23T13:50:42;2.50;;;1.33;;
34505;SDS011;20748;42.632;23.198;2024-03-23T13:53:15;7.25;;;2.03;;
34505;SDS011;20748;42.632;23.198;2024-03-23T13:55:46;2.58;;;1.52;;
34505;SDS011;20748;42.632;23.198;2024-03-23T13:58:21;3.80;;;1.80;;
34505;SDS011;20748;42.632;23.198;2024-03-23T14:00:56;5.70;;;2.42;;
34505;SDS011;20748;42.632;23.198;2024-03-23T14:03:29;3.80;;;2.17;;
34505;SDS011;20748;42.632;23.198;2024-03-23T14:06:01;3.22;;;1.42;;
34505;SDS011;20748;42.632;23.198;2024-03-23T14:08:34;4.80;;;2.05;;
34505;SDS011;20748;42.632;23.198;2024-03-23T14:11:07;2.08;;;1.30;;
34505;SDS011;20748;42.632;23.198;2024-03-23T14:13:41;5.80;;;1.80;;
34505;SDS011;20748;42.632;23.198;2024-03-23T14:16:13;3.88;;;2.30;;
34505;SDS011;20748;42.632;23.198;2024-03-23T14:18:46;3.78;;;1.83;;
34505;SDS011;20748;42.632;23.198;2024-03-23T14:21:17;9.82;;;1.88;;
34505;SDS011;20748;42.632;23.198;2024-03-23T14:23:50;3.95;;;1.85;;
34505;SDS011;20748;42.632;23.198;2024-03-23T14:26:22;3.05;;;1.73;;
34505;SDS011;20748;42.632;23.198;2024-03-23T14:28:56;3.45;;;1.67;;
34505;SDS011;20748;42.632;23.198;2024-03-23T14:31:28;2.35;;;1.67;;
34505;SDS011;20748;42.632;23.198;2024-03-23T14:34:00;4.90;;;1.98;;
34505;SDS011;20748;42.632;23.198;2024-03-23T14:36:32;2.75;;;1.65;;
34505;SDS011;20748;42.632;23.198;2024-03-23T14:39:05;2.97;;;1.80;;
34505;SDS011;20748;42.632;23.198;2024-03-23T14:41:37;2.75;;;1.35;;
34505;SDS011;20748;42.632;23.198;2024-03-23T14:44:11;2.80;;;1.67;;
34505;SDS011;20748;42.632;23.198;2024-03-23T14:46:44;4.70;;;1.73;;
34505;SDS011;20748;42.632;23.198;2024-03-23T14:49:16;4.15;;;2.05;;
34505;SDS011;20748;42.632;23.198;2024-03-23T14:51:49;3.92;;;1.92;;
34505;SDS011;20748;42.632;23.198;2024-03-23T14:54:22;3.53;;;1.75;;
34505;SDS011;20748;42.632;23.198;2024-03-23T14:56:53;3.33;;;1.95;;
34505;SDS011;20748;42.632;23.198;2024-03-23T14:59:28;4.85;;;2.08;;
34505;SDS011;20748;42.632;23.198;2024-03-23T15:02:01;3.28;;;1.65;;
34505;SDS011;20748;42.632;23.198;2024-03-23T15:04:34;3.58;;;1.80;;
34505;SDS011;20748;42.632;23.198;2024-03-23T15:07:06;5.32;;;1.92;;
34505;SDS011;20748;42.632;23.198;2024-03-23T15:09:38;4.47;;;2.58;;
34505;SDS011;20748;42.632;23.198;2024-03-23T15:12:10;3.47;;;1.70;;
34505;SDS011;20748;42.632;23.198;2024-03-23T15:14:44;3.67;;;2.10;;
34505;SDS011;20748;42.632;23.198;2024-03-23T15:17:17;3.38;;;1.67;;
34505;SDS011;20748;42.632;23.198;2024-03-23T15:19:49;4.70;;;2.05;;
34505;SDS011;20748;42.632;23.198;2024-03-23T15:22:21;2.70;;;1.42;;
34505;SDS011;20748;42.632;23.198;2024-03-23T15:24:54;2.70;;;1.70;;
34505;SDS011;20748;42.632;23.198;2024-03-23T15:27:26;4.10;;;2.13;;
34505;SDS011;20748;42.632;23.198;2024-03-23T15:30:00;3.83;;;1.92;;
34505;SDS011;20748;42.632;23.198;2024-03-23T15:32:31;4.28;;;1.88;;
34505;SDS011;20748;42.632;23.198;2024-03-23T15:35:04;3.30;;;1.80;;
34505;SDS011;20748;42.632;23.198;2024-03-23T15:37:38;6.75;;;2.10;;
34505;SDS011;20748;42.632;23.198;2024-03-23T15:40:11;3.50;;;1.95;;
34505;SDS011;20748;42.632;23.198;2024-03-23T15:42:44;3.10;;;1.92;;
34505;SDS011;20748;42.632;23.198;2024-03-23T15:45:18;4.03;;;2.58;;
34505;SDS011;20748;42.632;23.198;2024-03-23T15:47:50;3.90;;;2.55;;
34505;SDS011;20748;42.632;23.198;2024-03-23T15:50:23;5.80;;;2.13;;
34505;SDS011;20748;42.632;23.198;2024-03-23T15:52:54;6.05;;;2.20;;
34505;SDS011;20748;42.632;23.198;2024-03-23T15:55:27;3.08;;;1.75;;
34505;SDS011;20748;42.632;23.198;2024-03-23T15:57:59;6.88;;;2.55;;
34505;SDS011;20748;42.632;23.198;2024-03-23T16:00:33;4.80;;;2.50;;
34505;SDS011;20748;42.632;23.198;2024-03-23T16:03:04;4.45;;;1.83;;